sensor_id;sensor_type;location;lat;lon;timestamp;P1;durP1;ratioP1;P2;durP2;ratioP2
20972;SDS011;10645;52.370;13.314;2023-05-10T00:00:41;2.90;;;2.00;;
20972;SDS011;10645;52.370;13.314;2023-05-10T00:03:07;1.85;;;1.60;;
20972;SDS011;10645;52.370;13.314;2023-05-10T00:05:34;1.63;;;1.52;;
20972;SDS011;10645;52.370;13.314;2023-05-10T00:08:00;4.75;;;2.72;;
20972;SDS011;10645;52.370;13.314;2023-05-10T00:10:26;2.05;;;1.95;;
20972;SDS011;10645;52.370;13.314;2023-05-10T00:12:52;2.95;;;2.03;;
20972;SDS011;10645;52.370;13.314;2023-05-10T00:15:18;2.38;;;1.33;;
20972;SDS011;10645;52.370;13.314;2023-05-10T00:17:44;2.40;;;2.15;;
20972;SDS011;10645;52.370;13.314;2023-05-10T00:20:10;2.53;;;2.33;;
20972;SDS011;10645;52.370;13.314;2023-05-10T00:22:36;3.15;;;2.17;;
20972;SDS011;10645;52.370;13.314;2023-05-10T00:25:02;2.38;;;2.17;;
20972;SDS011;10645;52.370;13.314;2023-05-10T00:27:29;2.30;;;2.20;;
20972;SDS011;10645;52.370;13.314;2023-05-10T00:29:55;1.58;;;1.45;;
20972;SDS011;10645;52.370;13.314;2023-05-10T00:32:21;1.88;;;1.67;;
20972;SDS011;10645;52.370;13.314;2023-05-10T00:34:47;1.75;;;1.65;;
20972;SDS011;10645;52.370;13.314;2023-05-10T00:37:13;2.72;;;1.88;;
20972;SDS011;10645;52.370;13.314;2023-05-10T00:39:39;3.03;;;2.83;;
20972;SDS011;10645;52.370;13.314;2023-05-10T00:42:05;3.53;;;1.67;;
20972;SDS011;10645;52.370;13.314;2023-05-10T00:44:32;2.40;;;2.30;;
20972;SDS011;10645;52.370;13.314;2023-05-10T00:46:58;2.20;;;2.05;;
20972;SDS011;10645;52.370;13.314;2023-05-10T00:49:25;2.92;;;2.17;;
20972;SDS011;10645;52.370;13.314;2023-05-10T00:51:51;2.03;;;1.60;;
20972;SDS011;10645;52.370;13.314;2023-05-10T00:54:17;3.25;;;2.65;;
20972;SDS011;10645;52.370;13.314;2023-05-10T00:56:44;2.47;;;1.85;;
20972;SDS011;10645;52.370;13.314;2023-05-10T00:59:17;2.45;;;1.08;;
20972;SDS011;10645;52.370;13.314;2023-05-10T01:01:44;2.70;;;2.22;;
20972;SDS011;10645;52.370;13.314;2023-05-10T01:04:11;1.92;;;1.83;;
20972;SDS011;10645;52.370;13.314;2023-05-10T01:06:39;1.50;;;1.38;;
20972;SDS011;10645;52.370;13.314;2023-05-10T01:09:06;2.20;;;1.98;;
20972;SDS011;10645;52.370;13.314;2023-05-10T01:11:33;2.78;;;2.55;;
20972;SDS011;10645;52.370;13.314;2023-05-10T01:14:03;3.25;;;2.70;;
20972;SDS011;10645;52.370;13.314;2023-05-10T01:16:29;6.15;;;3.72;;
20972;SDS011;10645;52.370;13.314;2023-05-10T01:19:00;4.70;;;3.92;;
20972;SDS011;10645;52.370;13.314;2023-05-10T01:26:57;5.22;;;2.20;;
20972;SDS011;10645;52.370;13.314;2023-05-10T01:34:59;1.70;;;1.60;;
20972;SDS011;10645;52.370;13.314;2023-05-10T01:37:31;1.88;;;1.77;;
20972;SDS011;10645;52.370;13.314;2023-05-10T01:42:50;4.95;;;2.72;;
20972;SDS011;10645;52.370;13.314;2023-05-10T01:45:37;7.80;;;3.45;;
20972;SDS011;10645;52.370;13.314;2023-05-10T01:48:16;3.20;;;2.97;;
20972;SDS011;10645;52.370;13.314;2023-05-10T01:50:45;2.45;;;2.33;;
20972;SDS011;10645;52.370;13.314;2023-05-10T01:53:13;2.60;;;2.05;;
20972;SDS011;10645;52.370;13.314;2023-05-10T01:55:48;3.25;;;1.67;;
20972;SDS011;10645;52.370;13.314;2023-05-10T01:58:22;0.82;;;0.82;;
20972;SDS011;10645;52.370;13.314;2023-05-10T02:00:53;1.52;;;1.52;;
20972;SDS011;10645;52.370;13.314;2023-05-10T02:03:23;1.73;;;1.63;;
20972;SDS011;10645;52.370;13.314;2023-05-10T02:05:50;2.35;;;2.15;;
20972;SDS011;10645;52.370;13.314;2023-05-10T02:08:20;3.13;;;2.47;;
20972;SDS011;10645;52.370;13.314;2023-05-10T02:10:48;2.45;;;2.25;;
20972;SDS011;10645;52.370;13.314;2023-05-10T02:13:17;2.83;;;2.17;;
20972;SDS011;10645;52.370;13.314;2023-05-10T02:15:46;5.22;;;3.50;;
20972;SDS011;10645;52.370;13.314;2023-05-10T02:18:14;2.95;;;2.38;;
20972;SDS011;10645;52.370;13.314;2023-05-10T02:20:41;2.33;;;2.13;;
20972;SDS011;10645;52.370;13.314;2023-05-10T02:23:09;2.63;;;2.42;;
20972;SDS011;10645;52.370;13.314;2023-05-10T02:25:36;1.55;;;1.45;;
20972;SDS011;10645;52.370;13.314;2023-05-10T02:28:04;2.30;;;1.58;;
20972;SDS011;10645;52.370;13.314;2023-05-10T02:30:34;2.05;;;1.83;;
20972;SDS011;10645;52.370;13.314;2023-05-10T02:33:01;2.10;;;2.00;;
20972;SDS011;10645;52.370;13.314;2023-05-10T02:35:29;2.80;;;2.38;;
20972;SDS011;10645;52.370;13.314;2023-05-10T02:37:58;2.10;;;1.92;;
20972;SDS011;10645;52.370;13.314;2023-05-10T02:40:25;7.15;;;3.00;;
20972;SDS011;10645;52.370;13.314;2023-05-10T02:42:54;5.13;;;3.30;;
20972;SDS011;10645;52.370;13.314;2023-05-10T02:45:23;1.92;;;1.77;;
20972;SDS011;10645;52.370;13.314;2023-05-10T02:47:53;2.58;;;1.90;;
20972;SDS011;10645;52.370;13.314;2023-05-10T02:50:20;2.13;;;1.90;;
20972;SDS011;10645;52.370;13.314;2023-05-10T02:52:49;3.38;;;2.90;;
20972;SDS011;10645;52.370;13.314;2023-05-10T02:55:18;2.47;;;2.00;;
20972;SDS011;10645;52.370;13.314;2023-05-10T02:58:00;2.83;;;2.33;;
20972;SDS011;10645;52.370;13.314;2023-05-10T03:00:27;2.70;;;2.22;;
20972;SDS011;10645;52.370;13.314;2023-05-10T03:02:53;3.65;;;2.17;;
20972;SDS011;10645;52.370;13.314;2023-05-10T03:05:20;9.93;;;2.85;;
20972;SDS011;10645;52.370;13.314;2023-05-10T03:07:46;1.35;;;1.25;;
20972;SDS011;10645;52.370;13.314;2023-05-10T03:10:13;2.85;;;1.73;;
20972;SDS011;10645;52.370;13.314;2023-05-10T03:15:47;2.72;;;2.53;;
20972;SDS011;10645;52.370;13.314;2023-05-10T03:18:56;4.10;;;2.45;;
20972;SDS011;10645;52.370;13.314;2023-05-10T03:21:34;2.08;;;1.90;;
20972;SDS011;10645;52.370;13.314;2023-05-10T03:24:07;1.25;;;1.15;;
20972;SDS011;10645;52.370;13.314;2023-05-10T03:26:35;2.75;;;2.00;;
20972;SDS011;10645;52.370;13.314;2023-05-10T03:29:09;3.10;;;2.28;;
20972;SDS011;10645;52.370;13.314;2023-05-10T03:31:37;1.83;;;0.93;;
20972;SDS011;10645;52.370;13.314;2023-05-10T03:34:04;6.43;;;2.88;;
20972;SDS011;10645;52.370;13.314;2023-05-10T03:36:31;2.40;;;2.30;;
20972;SDS011;10645;52.370;13.314;2023-05-10T03:38:58;3.50;;;1.77;;
20972;SDS011;10645;52.370;13.314;2023-05-10T03:41:24;3.63;;;2.45;;
20972;SDS011;10645;52.370;13.314;2023-05-10T03:43:51;9.07;;;4.82;;
20972;SDS011;10645;52.370;13.314;2023-05-10T03:46:17;21.77;;;13.75;;
20972;SDS011;10645;52.370;13.314;2023-05-10T03:48:43;17.15;;;9.93;;
20972;SDS011;10645;52.370;13.314;2023-05-10T03:51:09;11.73;;;9.25;;
20972;SDS011;10645;52.370;13.314;2023-05-10T03:53:35;20.95;;;14.68;;
20972;SDS011;10645;52.370;13.314;2023-05-10T03:56:02;16.60;;;12.30;;
20972;SDS011;10645;52.370;13.314;2023-05-10T03:58:28;16.23;;;11.95;;
20972;SDS011;10645;52.370;13.314;2023-05-10T04:00:54;10.23;;;5.20;;
20972;SDS011;10645;52.370;13.314;2023-05-10T04:03:20;3.78;;;3.33;;
20972;SDS011;10645;52.370;13.314;2023-05-10T04:05:46;2.95;;;2.25;;
20972;SDS011;10645;52.370;13.314;2023-05-10T04:08:12;2.30;;;2.10;;
20972;SDS011;10645;52.370;13.314;2023-05-10T04:10:40;1.13;;;1.13;;
20972;SDS011;10645;52.370;13.314;2023-05-10T04:13:06;2.63;;;2.42;;
20972;SDS011;10645;52.370;13.314;2023-05-10T04:15:32;2.60;;;2.28;;
20972;SDS011;10645;52.370;13.314;2023-05-10T04:17:59;2.60;;;2.47;;
20972;SDS011;10645;52.370;13.314;2023-05-10T04:20:25;2.17;;;1.40;;
20972;SDS011;10645;52.370;13.314;2023-05-10T04:22:51;4.85;;;2.22;;
20972;SDS011;10645;52.370;13.314;2023-05-10T04:25:17;2.88;;;1.42;;
20972;SDS011;10645;52.370;13.314;2023-05-10T04:27:43;2.05;;;1.65;;
20972;SDS011;10645;52.370;13.314;2023-05-10T04:30:10;2.17;;;2.00;;
20972;SDS011;10645;52.370;13.314;2023-05-10T04:32:36;4.28;;;2.72;;
20972;SDS011;10645;52.370;13.314;2023-05-10T04:35:02;1.85;;;1.63;;
20972;SDS011;10645;52.370;13.314;2023-05-10T04:37:30;2.00;;;1.80;;
20972;SDS011;10645;52.370;13.314;2023-05-10T04:39:56;16.00;;;3.00;;
20972;SDS011;10645;52.370;13.314;2023-05-10T04:42:22;3.72;;;1.83;;
20972;SDS011;10645;52.370;13.314;2023-05-10T04:44:48;2.30;;;1.48;;
20972;SDS011;10645;52.370;13.314;2023-05-10T04:47:14;2.40;;;1.83;;
20972;SDS011;10645;52.370;13.314;2023-05-10T04:49:42;1.83;;;1.73;;
20972;SDS011;10645;52.370;13.314;2023-05-10T04:52:08;9.02;;;1.80;;
20972;SDS011;10645;52.370;13.314;2023-05-10T04:54:34;2.10;;;1.90;;
20972;SDS011;10645;52.370;13.314;2023-05-10T04:57:00;2.28;;;2.08;;
20972;SDS011;10645;52.370;13.314;2023-05-10T04:59:26;1.70;;;1.60;;
20972;SDS011;10645;52.370;13.314;2023-05-10T05:01:52;2.88;;;2.63;;
20972;SDS011;10645;52.370;13.314;2023-05-10T05:04:18;1.80;;;1.70;;
20972;SDS011;10645;52.370;13.314;2023-05-10T05:06:44;1.92;;;1.77;;
20972;SDS011;10645;52.370;13.314;2023-05-10T05:09:10;2.88;;;1.83;;
20972;SDS011;10645;52.370;13.314;2023-05-10T05:11:36;2.20;;;1.45;;
20972;SDS011;10645;52.370;13.314;2023-05-10T05:14:02;2.38;;;2.22;;
20972;SDS011;10645;52.370;13.314;2023-05-10T05:16:30;1.45;;;1.25;;
20972;SDS011;10645;52.370;13.314;2023-05-10T05:18:56;1.27;;;1.15;;
20972;SDS011;10645;52.370;13.314;2023-05-10T05:21:22;2.40;;;1.70;;
20972;SDS011;10645;52.370;13.314;2023-05-10T05:23:49;1.55;;;1.45;;
20972;SDS011;10645;52.370;13.314;2023-05-10T05:26:15;2.38;;;2.22;;
20972;SDS011;10645;52.370;13.314;2023-05-10T05:28:41;2.47;;;2.03;;
20972;SDS011;10645;52.370;13.314;2023-05-10T05:31:07;1.58;;;1.48;;
20972;SDS011;10645;52.370;13.314;2023-05-10T05:33:34;4.13;;;1.73;;
20972;SDS011;10645;52.370;13.314;2023-05-10T05:36:00;2.30;;;1.17;;
20972;SDS011;10645;52.370;13.314;2023-05-10T05:38:27;2.40;;;2.15;;
20972;SDS011;10645;52.370;13.314;2023-05-10T05:40:53;1.15;;;1.13;;
20972;SDS011;10645;52.370;13.314;2023-05-10T05:43:20;2.17;;;1.65;;
20972;SDS011;10645;52.370;13.314;2023-05-10T05:45:46;3.28;;;1.23;;
20972;SDS011;10645;52.370;13.314;2023-05-10T05:48:12;2.08;;;1.98;;
20972;SDS011;10645;52.370;13.314;2023-05-10T05:50:38;1.38;;;1.27;;
20972;SDS011;10645;52.370;13.314;2023-05-10T05:53:04;2.17;;;1.60;;
20972;SDS011;10645;52.370;13.314;2023-05-10T05:55:30;1.40;;;1.25;;
20972;SDS011;10645;52.370;13.314;2023-05-10T05:57:57;1.15;;;1.05;;
20972;SDS011;10645;52.370;13.314;2023-05-10T06:00:23;1.13;;;1.02;;
20972;SDS011;10645;52.370;13.314;2023-05-10T06:02:49;3.63;;;1.65;;
20972;SDS011;10645;52.370;13.314;2023-05-10T06:05:16;1.90;;;1.15;;
20972;SDS011;10645;52.370;13.314;2023-05-10T06:07:42;1.27;;;1.17;;
20972;SDS011;10645;52.370;13.314;2023-05-10T06:10:08;1.05;;;1.05;;
20972;SDS011;10645;52.370;13.314;2023-05-10T06:12:35;2.22;;;1.52;;
20972;SDS011;10645;52.370;13.314;2023-05-10T06:15:01;1.67;;;1.52;;
20972;SDS011;10645;52.370;13.314;2023-05-10T06:17:28;1.70;;;1.60;;
20972;SDS011;10645;52.370;13.314;2023-05-10T06:19:54;2.70;;;1.60;;
20972;SDS011;10645;52.370;13.314;2023-05-10T06:22:21;1.33;;;1.23;;
20972;SDS011;10645;52.370;13.314;2023-05-10T06:24:48;1.58;;;0.95;;
20972;SDS011;10645;52.370;13.314;2023-05-10T06:27:15;3.20;;;1.88;;
20972;SDS011;10645;52.370;13.314;2023-05-10T06:29:41;2.10;;;2.00;;
20972;SDS011;10645;52.370;13.314;2023-05-10T06:32:07;3.22;;;1.88;;
20972;SDS011;10645;52.370;13.314;2023-05-10T06:34:33;1.33;;;1.10;;
20972;SDS011;10645;52.370;13.314;2023-05-10T06:36:59;3.00;;;2.35;;
20972;SDS011;10645;52.370;13.314;2023-05-10T06:39:26;9.93;;;1.17;;
20972;SDS011;10645;52.370;13.314;2023-05-10T06:41:52;1.35;;;1.20;;
20972;SDS011;10645;52.370;13.314;2023-05-10T06:44:18;4.97;;;1.70;;
20972;SDS011;10645;52.370;13.314;2023-05-10T06:46:44;0.98;;;0.98;;
20972;SDS011;10645;52.370;13.314;2023-05-10T06:49:10;0.95;;;0.82;;
20972;SDS011;10645;52.370;13.314;2023-05-10T06:51:37;2.05;;;1.50;;
20972;SDS011;10645;52.370;13.314;2023-05-10T06:54:03;2.90;;;1.90;;
20972;SDS011;10645;52.370;13.314;2023-05-10T06:56:29;1.90;;;1.63;;
20972;SDS011;10645;52.370;13.314;2023-05-10T06:58:55;1.50;;;0.98;;
20972;SDS011;10645;52.370;13.314;2023-05-10T07:01:21;2.50;;;1.05;;
20972;SDS011;10645;52.370;13.314;2023-05-10T07:03:47;1.60;;;1.17;;
20972;SDS011;10645;52.370;13.314;2023-05-10T07:06:13;0.50;;;0.50;;
20972;SDS011;10645;52.370;13.314;2023-05-10T07:08:39;6.07;;;1.02;;
20972;SDS011;10645;52.370;13.314;2023-05-10T07:11:06;1.48;;;1.25;;
20972;SDS011;10645;52.370;13.314;2023-05-10T07:13:35;1.73;;;1.38;;
20972;SDS011;10645;52.370;13.314;2023-05-10T07:16:02;2.17;;;1.77;;
20972;SDS011;10645;52.370;13.314;2023-05-10T07:18:28;1.38;;;1.27;;
20972;SDS011;10645;52.370;13.314;2023-05-10T07:20:54;12.43;;;1.98;;
20972;SDS011;10645;52.370;13.314;2023-05-10T07:23:20;2.88;;;1.42;;
20972;SDS011;10645;52.370;13.314;2023-05-10T07:25:49;1.52;;;1.05;;
20972;SDS011;10645;52.370;13.314;2023-05-10T07:28:19;5.20;;;0.80;;
20972;SDS011;10645;52.370;13.314;2023-05-10T07:30:45;1.55;;;1.08;;
20972;SDS011;10645;52.370;13.314;2023-05-10T07:33:12;15.55;;;1.85;;
20972;SDS011;10645;52.370;13.314;2023-05-10T07:35:39;1.55;;;1.45;;
20972;SDS011;10645;52.370;13.314;2023-05-10T07:38:05;1.77;;;1.40;;
20972;SDS011;10645;52.370;13.314;2023-05-10T07:40:31;1.30;;;1.17;;
20972;SDS011;10645;52.370;13.314;2023-05-10T07:42:57;1.77;;;1.55;;
20972;SDS011;10645;52.370;13.314;2023-05-10T07:45:23;1.60;;;1.33;;
20972;SDS011;10645;52.370;13.314;2023-05-10T07:47:49;2.20;;;2.10;;
20972;SDS011;10645;52.370;13.314;2023-05-10T07:50:15;1.08;;;1.08;;
20972;SDS011;10645;52.370;13.314;2023-05-10T07:52:42;4.13;;;1.95;;
20972;SDS011;10645;52.370;13.314;2023-05-10T07:55:08;1.90;;;0.98;;
20972;SDS011;10645;52.370;13.314;2023-05-10T07:57:34;1.02;;;0.88;;
20972;SDS011;10645;52.370;13.314;2023-05-10T08:00:00;4.28;;;1.67;;
20972;SDS011;10645;52.370;13.314;2023-05-10T08:02:27;1.48;;;1.38;;
20972;SDS011;10645;52.370;13.314;2023-05-10T08:04:53;1.00;;;0.93;;
20972;SDS011;10645;52.370;13.314;2023-05-10T08:07:19;5.80;;;2.55;;
20972;SDS011;10645;52.370;13.314;2023-05-10T08:09:45;1.15;;;1.10;;
20972;SDS011;10645;52.370;13.314;2023-05-10T08:12:11;1.48;;;1.30;;
20972;SDS011;10645;52.370;13.314;2023-05-10T08:14:37;3.55;;;2.03;;
20972;SDS011;10645;52.370;13.314;2023-05-10T08:17:03;0.70;;;0.70;;
20972;SDS011;10645;52.370;13.314;2023-05-10T08:19:30;2.63;;;2.25;;
20972;SDS011;10645;52.370;13.314;2023-05-10T08:21:56;1.33;;;1.23;;
20972;SDS011;10645;52.370;13.314;2023-05-10T08:24:22;2.70;;;1.33;;
20972;SDS011;10645;52.370;13.314;2023-05-10T08:26:48;1.15;;;0.88;;
20972;SDS011;10645;52.370;13.314;2023-05-10T08:29:15;1.23;;;1.13;;
20972;SDS011;10645;52.370;13.314;2023-05-10T08:31:41;1.63;;;1.05;;
20972;SDS011;10645;52.370;13.314;2023-05-10T08:34:07;0.93;;;0.93;;
20972;SDS011;10645;52.370;13.314;2023-05-10T08:36:33;1.00;;;1.00;;
20972;SDS011;10645;52.370;13.314;2023-05-10T08:38:59;2.10;;;1.38;;
20972;SDS011;10645;52.370;13.314;2023-05-10T08:41:25;1.08;;;0.98;;
20972;SDS011;10645;52.370;13.314;2023-05-10T08:43:52;1.90;;;1.35;;
20972;SDS011;10645;52.370;13.314;2023-05-10T08:46:19;1.10;;;1.00;;
20972;SDS011;10645;52.370;13.314;2023-05-10T08:48:47;1.50;;;1.42;;
20972;SDS011;10645;52.370;13.314;2023-05-10T08:51:15;1.48;;;1.08;;
20972;SDS011;10645;52.370;13.314;2023-05-10T08:53:45;1.02;;;0.95;;
20972;SDS011;10645;52.370;13.314;2023-05-10T08:56:11;1.83;;;1.35;;
20972;SDS011;10645;52.370;13.314;2023-05-10T08:58:38;1.60;;;1.50;;
20972;SDS011;10645;52.370;13.314;2023-05-10T09:01:04;1.30;;;1.20;;
20972;SDS011;10645;52.370;13.314;2023-05-10T09:03:31;1.00;;;0.95;;
20972;SDS011;10645;52.370;13.314;2023-05-10T09:05:57;1.95;;;1.33;;
20972;SDS011;10645;52.370;13.314;2023-05-10T09:08:24;1.38;;;1.33;;
20972;SDS011;10645;52.370;13.314;2023-05-10T09:10:51;1.35;;;1.25;;
20972;SDS011;10645;52.370;13.314;2023-05-10T09:13:17;0.95;;;0.95;;
20972;SDS011;10645;52.370;13.314;2023-05-10T09:15:45;1.63;;;1.02;;
20972;SDS011;10645;52.370;13.314;2023-05-10T09:18:11;2.78;;;1.10;;
20972;SDS011;10645;52.370;13.314;2023-05-10T09:20:37;2.00;;;1.70;;
20972;SDS011;10645;52.370;13.314;2023-05-10T09:23:04;1.15;;;1.13;;
20972;SDS011;10645;52.370;13.314;2023-05-10T09:25:30;1.13;;;1.02;;
20972;SDS011;10645;52.370;13.314;2023-05-10T09:27:59;1.48;;;1.38;;
20972;SDS011;10645;52.370;13.314;2023-05-10T09:30:28;3.85;;;1.63;;
20972;SDS011;10645;52.370;13.314;2023-05-10T09:32:56;1.65;;;1.55;;
20972;SDS011;10645;52.370;13.314;2023-05-10T09:35:24;1.65;;;1.45;;
20972;SDS011;10645;52.370;13.314;2023-05-10T09:37:52;2.13;;;1.20;;
20972;SDS011;10645;52.370;13.314;2023-05-10T09:40:21;1.40;;;1.30;;
20972;SDS011;10645;52.370;13.314;2023-05-10T09:45:19;2.05;;;1.67;;
20972;SDS011;10645;52.370;13.314;2023-05-10T09:47:46;1.98;;;1.73;;
20972;SDS011;10645;52.370;13.314;2023-05-10T09:50:13;1.33;;;1.23;;
20972;SDS011;10645;52.370;13.314;2023-05-10T09:52:46;1.55;;;1.40;;
20972;SDS011;10645;52.370;13.314;2023-05-10T09:55:18;1.88;;;1.20;;
20972;SDS011;10645;52.370;13.314;2023-05-10T09:57:49;1.27;;;1.15;;
20972;SDS011;10645;52.370;13.314;2023-05-10T10:00:23;1.67;;;1.58;;
20972;SDS011;10645;52.370;13.314;2023-05-10T10:02:57;1.83;;;1.17;;
20972;SDS011;10645;52.370;13.314;2023-05-10T10:05:33;1.70;;;1.45;;
20972;SDS011;10645;52.370;13.314;2023-05-10T10:08:02;2.67;;;1.40;;
20972;SDS011;10645;52.370;13.314;2023-05-10T10:10:29;1.20;;;0.98;;
20972;SDS011;10645;52.370;13.314;2023-05-10T10:12:56;7.57;;;1.52;;
20972;SDS011;10645;52.370;13.314;2023-05-10T10:15:22;1.67;;;1.08;;
20972;SDS011;10645;52.370;13.314;2023-05-10T10:17:50;1.25;;;1.17;;
20972;SDS011;10645;52.370;13.314;2023-05-10T10:20:17;0.90;;;0.90;;
20972;SDS011;10645;52.370;13.314;2023-05-10T10:22:44;1.23;;;1.13;;
20972;SDS011;10645;52.370;13.314;2023-05-10T10:25:11;2.08;;;1.35;;
20972;SDS011;10645;52.370;13.314;2023-05-10T10:35:58;1.63;;;1.52;;
20972;SDS011;10645;52.370;13.314;2023-05-10T10:38:36;4.00;;;2.00;;
20972;SDS011;10645;52.370;13.314;2023-05-10T10:41:32;0.90;;;0.82;;
20972;SDS011;10645;52.370;13.314;2023-05-10T10:46:58;2.33;;;1.75;;
20972;SDS011;10645;52.370;13.314;2023-05-10T10:49:48;2.42;;;1.50;;
20972;SDS011;10645;52.370;13.314;2023-05-10T10:52:21;5.57;;;1.75;;
20972;SDS011;10645;52.370;13.314;2023-05-10T10:57:28;1.80;;;1.33;;
20972;SDS011;10645;52.370;13.314;2023-05-10T11:02:49;2.03;;;1.13;;
20972;SDS011;10645;52.370;13.314;2023-05-10T11:05:23;1.10;;;1.10;;
20972;SDS011;10645;52.370;13.314;2023-05-10T11:08:12;0.82;;;0.82;;
20972;SDS011;10645;52.370;13.314;2023-05-10T11:13:34;1.42;;;1.20;;
20972;SDS011;10645;52.370;13.314;2023-05-10T11:16:11;1.95;;;1.63;;
20972;SDS011;10645;52.370;13.314;2023-05-10T11:18:39;4.10;;;1.80;;
20972;SDS011;10645;52.370;13.314;2023-05-10T11:21:07;0.90;;;0.90;;
20972;SDS011;10645;52.370;13.314;2023-05-10T11:26:12;1.15;;;1.10;;
20972;SDS011;10645;52.370;13.314;2023-05-10T11:28:45;1.90;;;1.25;;
20972;SDS011;10645;52.370;13.314;2023-05-10T11:31:16;0.85;;;0.85;;
20972;SDS011;10645;52.370;13.314;2023-05-10T11:33:43;1.35;;;1.15;;
20972;SDS011;10645;52.370;13.314;2023-05-10T11:36:16;1.35;;;1.25;;
20972;SDS011;10645;52.370;13.314;2023-05-10T11:38:44;1.63;;;1.15;;
20972;SDS011;10645;52.370;13.314;2023-05-10T11:41:11;1.48;;;1.38;;
20972;SDS011;10645;52.370;13.314;2023-05-10T11:43:38;1.40;;;1.27;;
20972;SDS011;10645;52.370;13.314;2023-05-10T11:46:06;2.13;;;1.35;;
20972;SDS011;10645;52.370;13.314;2023-05-10T11:48:37;0.75;;;0.75;;
20972;SDS011;10645;52.370;13.314;2023-05-10T11:51:04;1.90;;;1.80;;
20972;SDS011;10645;52.370;13.314;2023-05-10T11:53:32;1.25;;;1.15;;
20972;SDS011;10645;52.370;13.314;2023-05-10T11:56:02;1.30;;;1.20;;
20972;SDS011;10645;52.370;13.314;2023-05-10T11:58:32;0.88;;;0.88;;
20972;SDS011;10645;52.370;13.314;2023-05-10T12:00:59;0.82;;;0.82;;
20972;SDS011;10645;52.370;13.314;2023-05-10T12:03:29;2.67;;;1.05;;
20972;SDS011;10645;52.370;13.314;2023-05-10T12:05:56;0.90;;;0.90;;
20972;SDS011;10645;52.370;13.314;2023-05-10T12:08:27;2.05;;;1.50;;
20972;SDS011;10645;52.370;13.314;2023-05-10T12:11:05;2.42;;;1.30;;
20972;SDS011;10645;52.370;13.314;2023-05-10T12:13:36;2.58;;;2.08;;
20972;SDS011;10645;52.370;13.314;2023-05-10T12:16:15;1.20;;;1.10;;
20972;SDS011;10645;52.370;13.314;2023-05-10T12:18:43;1.92;;;1.27;;
20972;SDS011;10645;52.370;13.314;2023-05-10T12:21:10;1.85;;;1.75;;
20972;SDS011;10645;52.370;13.314;2023-05-10T12:23:37;1.45;;;1.35;;
20972;SDS011;10645;52.370;13.314;2023-05-10T12:26:04;1.38;;;1.27;;
20972;SDS011;10645;52.370;13.314;2023-05-10T12:28:31;0.75;;;0.70;;
20972;SDS011;10645;52.370;13.314;2023-05-10T12:31:01;1.00;;;0.90;;
20972;SDS011;10645;52.370;13.314;2023-05-10T12:33:34;1.10;;;1.10;;
20972;SDS011;10645;52.370;13.314;2023-05-10T12:36:07;1.02;;;0.93;;
20972;SDS011;10645;52.370;13.314;2023-05-10T12:41:04;1.70;;;1.30;;
20972;SDS011;10645;52.370;13.314;2023-05-10T12:43:34;1.05;;;1.00;;
20972;SDS011;10645;52.370;13.314;2023-05-10T12:46:04;1.42;;;1.30;;
20972;SDS011;10645;52.370;13.314;2023-05-10T12:48:31;2.50;;;1.40;;
20972;SDS011;10645;52.370;13.314;2023-05-10T12:50:59;1.88;;;1.77;;
20972;SDS011;10645;52.370;13.314;2023-05-10T12:53:27;1.60;;;1.40;;
20972;SDS011;10645;52.370;13.314;2023-05-10T12:55:53;1.70;;;1.60;;
20972;SDS011;10645;52.370;13.314;2023-05-10T12:58:19;2.13;;;1.73;;
20972;SDS011;10645;52.370;13.314;2023-05-10T13:00:45;1.35;;;1.27;;
20972;SDS011;10645;52.370;13.314;2023-05-10T13:03:11;1.45;;;1.35;;
20972;SDS011;10645;52.370;13.314;2023-05-10T13:05:38;0.90;;;0.90;;
20972;SDS011;10645;52.370;13.314;2023-05-10T13:08:04;1.50;;;1.40;;
20972;SDS011;10645;52.370;13.314;2023-05-10T13:10:30;2.90;;;1.67;;
20972;SDS011;10645;52.370;13.314;2023-05-10T13:13:00;2.10;;;1.25;;
20972;SDS011;10645;52.370;13.314;2023-05-10T13:15:26;1.27;;;1.25;;
20972;SDS011;10645;52.370;13.314;2023-05-10T13:17:53;1.83;;;1.45;;
20972;SDS011;10645;52.370;13.314;2023-05-10T13:20:19;2.17;;;1.98;;
20972;SDS011;10645;52.370;13.314;2023-05-10T13:22:46;2.38;;;1.30;;
20972;SDS011;10645;52.370;13.314;2023-05-10T13:25:12;1.88;;;1.35;;
20972;SDS011;10645;52.370;13.314;2023-05-10T13:27:39;1.42;;;1.35;;
20972;SDS011;10645;52.370;13.314;2023-05-10T13:30:05;1.67;;;1.48;;
20972;SDS011;10645;52.370;13.314;2023-05-10T13:32:32;2.33;;;1.90;;
20972;SDS011;10645;52.370;13.314;2023-05-10T13:34:58;3.05;;;1.63;;
20972;SDS011;10645;52.370;13.314;2023-05-10T13:37:25;1.63;;;1.52;;
20972;SDS011;10645;52.370;13.314;2023-05-10T13:39:51;1.85;;;1.63;;
20972;SDS011;10645;52.370;13.314;2023-05-10T13:42:17;3.33;;;2.10;;
20972;SDS011;10645;52.370;13.314;2023-05-10T13:44:44;2.20;;;1.85;;
20972;SDS011;10645;52.370;13.314;2023-05-10T13:47:11;1.65;;;1.55;;
20972;SDS011;10645;52.370;13.314;2023-05-10T13:49:37;1.00;;;1.00;;
20972;SDS011;10645;52.370;13.314;2023-05-10T13:52:03;3.05;;;1.67;;
20972;SDS011;10645;52.370;13.314;2023-05-10T13:54:35;3.45;;;1.85;;
20972;SDS011;10645;52.370;13.314;2023-05-10T13:57:02;1.95;;;1.40;;
20972;SDS011;10645;52.370;13.314;2023-05-10T13:59:28;1.95;;;1.55;;
20972;SDS011;10645;52.370;13.314;2023-05-10T14:01:57;1.65;;;1.55;;
20972;SDS011;10645;52.370;13.314;2023-05-10T14:04:24;4.75;;;1.90;;
20972;SDS011;10645;52.370;13.314;2023-05-10T14:06:50;1.83;;;1.70;;
20972;SDS011;10645;52.370;13.314;2023-05-10T14:09:18;1.30;;;1.20;;
20972;SDS011;10645;52.370;13.314;2023-05-10T14:11:44;1.20;;;1.15;;
20972;SDS011;10645;52.370;13.314;2023-05-10T14:14:11;1.85;;;1.25;;
20972;SDS011;10645;52.370;13.314;2023-05-10T14:16:38;2.50;;;1.38;;
20972;SDS011;10645;52.370;13.314;2023-05-10T14:19:07;1.55;;;1.45;;
20972;SDS011;10645;52.370;13.314;2023-05-10T14:21:33;1.38;;;1.27;;
20972;SDS011;10645;52.370;13.314;2023-05-10T14:23:59;1.60;;;1.50;;
20972;SDS011;10645;52.370;13.314;2023-05-10T14:26:25;1.08;;;1.02;;
20972;SDS011;10645;52.370;13.314;2023-05-10T14:28:51;1.40;;;1.30;;
20972;SDS011;10645;52.370;13.314;2023-05-10T14:31:18;1.48;;;1.30;;
20972;SDS011;10645;52.370;13.314;2023-05-10T14:33:46;1.63;;;1.35;;
20972;SDS011;10645;52.370;13.314;2023-05-10T14:36:12;1.50;;;1.40;;
20972;SDS011;10645;52.370;13.314;2023-05-10T14:38:39;2.15;;;1.92;;
20972;SDS011;10645;52.370;13.314;2023-05-10T14:41:05;1.73;;;1.33;;
20972;SDS011;10645;52.370;13.314;2023-05-10T14:43:32;1.73;;;1.27;;
20972;SDS011;10645;52.370;13.314;2023-05-10T14:45:58;2.88;;;1.40;;
20972;SDS011;10645;52.370;13.314;2023-05-10T14:48:24;1.33;;;1.23;;
20972;SDS011;10645;52.370;13.314;2023-05-10T14:50:50;1.50;;;1.40;;
20972;SDS011;10645;52.370;13.314;2023-05-10T14:53:18;2.55;;;1.42;;
20972;SDS011;10645;52.370;13.314;2023-05-10T14:55:44;2.05;;;1.27;;
20972;SDS011;10645;52.370;13.314;2023-05-10T14:58:10;1.45;;;1.35;;
20972;SDS011;10645;52.370;13.314;2023-05-10T15:00:36;1.20;;;1.20;;
20972;SDS011;10645;52.370;13.314;2023-05-10T15:03:02;1.50;;;1.40;;
20972;SDS011;10645;52.370;13.314;2023-05-10T15:05:28;2.00;;;1.63;;
20972;SDS011;10645;52.370;13.314;2023-05-10T15:07:55;1.65;;;1.45;;
20972;SDS011;10645;52.370;13.314;2023-05-10T15:10:21;1.33;;;1.23;;
20972;SDS011;10645;52.370;13.314;2023-05-10T15:12:47;2.40;;;2.25;;
20972;SDS011;10645;52.370;13.314;2023-05-10T15:15:13;1.77;;;1.63;;
20972;SDS011;10645;52.370;13.314;2023-05-10T15:17:40;1.40;;;1.30;;
20972;SDS011;10645;52.370;13.314;2023-05-10T15:20:06;1.73;;;1.50;;